createdAt,value
2023-05-11T00:00:36.893Z,77132.16
2023-05-11T00:03:20.032Z,77136.19
2023-05-11T00:05:55.359Z,77140.25
2023-05-11T00:08:30.291Z,77146.34
2023-05-11T00:11:05.597Z,77150.41
2023-05-11T00:13:36.615Z,77152.41
2023-05-11T00:16:11.979Z,77156.47
2023-05-11T00:18:43.085Z,77160.53
2023-05-11T00:21:18.573Z,77162.56
2023-05-11T00:23:55.313Z,77174.72
2023-05-11T00:26:26.826Z,77180.81
2023-05-11T00:29:01.830Z,77180.81
2023-05-11T00:31:41.293Z,77188.91
2023-05-11T00:34:16.300Z,77188.91
2023-05-11T00:36:51.828Z,77201.06
2023-05-11T00:39:23.257Z,77205.13
2023-05-11T00:41:54.599Z,77209.19
2023-05-11T00:44:25.624Z,77213.25
2023-05-11T00:47:01.705Z,77221.34
2023-05-11T00:49:40.954Z,77221.34
2023-05-11T00:52:16.306Z,77229.47
2023-05-11T00:54:48.196Z,77231.50
2023-05-11T00:57:23.489Z,77241.63
2023-05-11T00:59:58.359Z,77241.63
2023-05-11T01:02:33.912Z,77241.63
2023-05-11T01:05:05.815Z,77241.63
2023-05-11T01:07:44.757Z,77245.69
2023-05-11T01:10:27.811Z,77249.75
2023-05-11T01:13:09.698Z,77257.84
2023-05-11T01:15:57.473Z,77261.91
2023-05-11T01:18:39.461Z,77265.97
2023-05-11T01:21:20.692Z,77278.13
2023-05-11T01:24:08.544Z,77284.22
2023-05-11T01:26:59.437Z,77294.34
2023-05-11T01:29:50.869Z,77302.44
2023-05-11T01:32:27.393Z,77310.56
2023-05-11T01:35:33.806Z,77318.66
2023-05-11T01:38:10.823Z,77318.66
2023-05-11T01:40:48.757Z,77322.72
2023-05-11T01:43:23.700Z,77326.78
2023-05-11T01:46:04.537Z,77347.06
2023-05-11T01:48:42.364Z,77334.91
2023-05-11T01:51:20.136Z,77343.00
2023-05-11T01:53:53.501Z,77351.13
2023-05-11T01:56:34.375Z,77347.06
2023-05-11T01:59:10.413Z,77357.19
2023-05-11T02:01:45.933Z,77359.22
2023-05-11T02:04:19.997Z,77363.28
2023-05-11T02:06:56.575Z,77365.31
2023-05-11T02:09:31.507Z,77367.34
2023-05-11T02:12:09.556Z,77367.34
2023-05-11T02:14:42.562Z,77371.38
2023-05-11T02:17:20.522Z,77379.50
2023-05-11T02:19:52.605Z,77391.66
2023-05-11T02:22:29.842Z,77399.78
2023-05-11T02:25:00.997Z,77395.72
2023-05-11T02:27:37.093Z,77401.81
2023-05-11T02:30:13.878Z,77405.84
2023-05-11T02:32:55.570Z,77399.78
2023-05-11T02:35:34.362Z,77399.78
2023-05-11T02:38:11.328Z,77399.78
2023-05-11T02:40:55.886Z,77399.78
2023-05-11T02:43:32.436Z,77399.78
2023-05-11T02:46:10.993Z,77403.84
2023-05-11T02:48:55.297Z,77407.88
2023-05-11T02:51:36.142Z,77411.94
2023-05-11T02:54:10.795Z,77399.78
2023-05-11T02:56:51.047Z,77401.81
2023-05-11T02:59:24.258Z,77403.84
2023-05-11T03:01:59.638Z,77403.84
2023-05-11T03:04:35.362Z,77399.78
2023-05-11T03:07:12.063Z,77403.84
2023-05-11T03:09:43.939Z,77403.84
2023-05-11T03:12:19.315Z,77405.84
2023-05-11T03:14:52.417Z,77411.94
2023-05-11T03:17:28.235Z,77401.81
2023-05-11T03:20:03.556Z,77403.84
2023-05-11T03:22:41.051Z,77407.88
2023-05-11T03:25:19.364Z,77399.78
2023-05-11T03:27:51.313Z,77403.84
2023-05-11T03:30:33.373Z,77399.78
2023-05-11T03:33:08.535Z,77391.66
2023-05-11T03:35:47.193Z,77391.66
2023-05-11T03:38:27.906Z,77387.59
2023-05-11T03:41:01.364Z,77383.56
2023-05-11T03:43:44.659Z,77375.44
2023-05-11T03:46:24.421Z,77375.44
2023-05-11T03:48:59.694Z,77371.38
2023-05-11T03:51:32.872Z,77359.22
2023-05-11T03:54:07.988Z,77355.16
2023-05-11T03:56:40.536Z,77351.13
2023-05-11T03:59:20.381Z,77343.00
2023-05-11T04:01:53.216Z,77336.91
2023-05-11T04:04:35.679Z,77326.78
2023-05-11T04:07:07.019Z,77310.56
2023-05-11T04:09:41.949Z,77298.41
2023-05-11T04:12:17.216Z,77274.06
2023-05-11T04:14:52.112Z,77249.75
2023-05-11T04:17:27.637Z,77221.34
2023-05-11T04:19:58.499Z,77188.91
2023-05-11T04:22:33.685Z,77156.47
2023-05-11T04:25:09.172Z,77144.31
2023-05-11T04:27:44.927Z,77115.94
2023-05-11T04:30:16.204Z,77091.59
2023-05-11T04:32:52.097Z,77059.16
2023-05-11T04:35:24.776Z,77022.66
2023-05-11T04:37:56.708Z,76998.34
2023-05-11T04:40:28.041Z,76971.97
2023-05-11T04:42:59.523Z,76949.69
2023-05-11T04:45:30.506Z,76921.31
2023-05-11T04:48:06.660Z,76882.78
2023-05-11T04:50:43.730Z,76846.28
2023-05-11T04:53:24.747Z,76795.59
2023-05-11T04:55:55.819Z,76767.22
2023-05-11T04:58:31.220Z,76746.97
2023-05-11T05:01:02.228Z,76775.34
2023-05-11T05:03:37.537Z,76738.84
2023-05-11T05:06:12.613Z,76686.13
2023-05-11T05:08:47.995Z,76645.59
2023-05-11T05:11:21.714Z,76651.69
2023-05-11T05:13:58.993Z,76665.88
2023-05-11T05:16:34.142Z,76742.91
2023-05-11T05:19:09.383Z,76763.16
2023-05-11T05:21:48.840Z,76781.41
2023-05-11T05:24:24.639Z,76807.78
2023-05-11T05:26:59.532Z,76807.78
2023-05-11T05:29:34.985Z,76791.56
2023-05-11T05:32:05.902Z,76787.50
2023-05-11T05:34:41.954Z,76779.38
2023-05-11T05:37:21.411Z,76777.38
2023-05-11T05:39:56.963Z,76779.38
2023-05-11T05:42:28.087Z,76771.28
2023-05-11T05:45:03.857Z,76771.28
2023-05-11T05:47:39.101Z,76759.13
2023-05-11T05:50:11.737Z,76759.13
2023-05-11T05:52:47.624Z,76755.06
2023-05-11T05:55:23.856Z,76746.97
2023-05-11T05:57:56.109Z,76734.78
2023-05-11T06:00:27.610Z,76722.63
2023-05-11T06:03:09.222Z,76710.47
2023-05-11T06:05:45.712Z,76702.34
2023-05-11T06:08:25.111Z,76684.13
2023-05-11T06:10:56.788Z,76665.88
2023-05-11T06:13:31.894Z,76665.88
2023-05-11T06:16:03.426Z,76653.72
2023-05-11T06:18:39.536Z,76641.53
2023-05-11T06:21:11.263Z,76623.31
2023-05-11T06:23:46.279Z,76607.09
2023-05-11T06:26:21.839Z,76607.09
2023-05-11T06:29:01.602Z,76594.91
2023-05-11T06:31:33.162Z,76580.72
2023-05-11T06:34:09.246Z,76580.72
2023-05-11T06:36:40.688Z,76568.56
2023-05-11T06:39:16.207Z,76544.25
2023-05-11T06:41:47.849Z,76540.19
2023-05-11T06:44:18.971Z,76532.09
2023-05-11T06:46:53.398Z,76528.03
2023-05-11T06:49:24.380Z,76511.81
2023-05-11T06:51:53.289Z,76495.59
2023-05-11T06:54:22.504Z,76483.44
2023-05-11T06:56:50.215Z,76465.19
2023-05-11T06:59:17.390Z,76455.06
2023-05-11T07:01:44.916Z,76434.78
2023-05-11T07:04:12.154Z,76430.72
2023-05-11T07:06:39.261Z,76418.56
2023-05-11T07:09:06.796Z,76418.56
2023-05-11T07:11:34.006Z,76428.69
2023-05-11T07:14:01.333Z,76410.47
2023-05-11T07:16:28.683Z,76398.28
2023-05-11T07:18:56.617Z,76382.09
2023-05-11T07:21:23.908Z,76361.81
2023-05-11T07:23:50.972Z,76345.59
2023-05-11T07:26:18.293Z,76345.59
2023-05-11T07:28:45.520Z,76337.50
2023-05-11T07:31:12.851Z,76345.59
2023-05-11T07:33:40.031Z,76341.53
2023-05-11T07:36:07.722Z,76337.50
2023-05-11T07:38:35.107Z,76343.56
2023-05-11T07:41:03.175Z,76337.50
2023-05-11T07:43:31.817Z,76329.38
2023-05-11T07:45:59.670Z,76325.31
2023-05-11T07:48:27.106Z,76327.34
2023-05-11T07:50:54.536Z,76319.25
2023-05-11T07:53:21.942Z,76311.13
2023-05-11T07:55:49.164Z,76301.00
2023-05-11T07:58:16.530Z,76305.06
2023-05-11T08:00:43.818Z,76309.13
2023-05-11T08:03:11.322Z,76294.91
2023-05-11T08:05:38.681Z,76264.53
2023-05-11T08:08:06.398Z,76260.47
2023-05-11T08:10:33.715Z,76240.19
2023-05-11T08:13:01.039Z,76223.97
2023-05-11T08:15:28.484Z,76232.09
2023-05-11T08:17:56.118Z,76228.03
2023-05-11T08:20:23.912Z,76223.97
2023-05-11T08:22:50.949Z,76215.88
2023-05-11T08:25:18.915Z,76207.78
2023-05-11T08:27:46.060Z,76207.78
2023-05-11T08:30:14.079Z,76203.72
2023-05-11T08:35:13.466Z,76207.78
2023-05-11T08:37:40.439Z,76203.72
2023-05-11T08:40:13.853Z,76183.44
2023-05-11T08:42:46.757Z,76191.56
2023-05-11T08:45:15.428Z,76195.59
2023-05-11T08:47:42.793Z,76187.50
2023-05-11T08:50:10.620Z,76187.50
2023-05-11T08:52:37.975Z,76175.34
2023-05-11T08:55:05.973Z,76175.34
2023-05-11T08:57:35.077Z,76175.34
2023-05-11T09:00:03.733Z,76171.28
2023-05-11T09:02:31.925Z,76181.41
2023-05-11T09:05:01.750Z,76159.13
2023-05-11T09:07:30.124Z,76155.06
2023-05-11T09:09:58.050Z,76146.97
2023-05-11T09:12:26.394Z,76155.06
2023-05-11T09:14:55.056Z,76167.22
2023-05-11T09:17:29.052Z,76159.13
2023-05-11T09:20:01.536Z,76146.97
2023-05-11T09:22:31.414Z,76155.06
2023-05-11T09:25:02.347Z,76138.84
2023-05-11T09:27:29.282Z,76134.78
2023-05-11T09:29:56.604Z,76142.91
2023-05-11T09:32:24.125Z,76122.63
2023-05-11T09:34:51.943Z,76110.47
2023-05-11T09:37:19.592Z,76114.53
2023-05-11T09:40:14.062Z,76106.41
2023-05-11T09:42:33.909Z,76120.63
2023-05-11T09:45:01.257Z,76122.63
2023-05-11T09:47:39.867Z,76126.69
2023-05-11T09:50:18.544Z,76110.47
2023-05-11T09:52:53.125Z,76100.34
2023-05-11T09:55:20.831Z,76074.00
2023-05-11T09:57:57.567Z,76074.00
2023-05-11T10:00:25.473Z,76053.72
2023-05-11T10:03:02.130Z,76053.72
2023-05-11T10:05:31.974Z,76041.56
2023-05-11T10:08:07.996Z,76041.56
2023-05-11T10:10:35.771Z,76021.31
2023-05-11T10:13:03.617Z,76013.19
2023-05-11T10:15:32.738Z,76025.34
2023-05-11T10:18:01.494Z,76025.34
2023-05-11T10:20:28.826Z,76033.47
2023-05-11T10:22:56.261Z,76037.50
2023-05-11T10:25:25.217Z,76025.34
2023-05-11T10:27:53.816Z,76007.13
2023-05-11T10:30:22.494Z,75996.97
2023-05-11T10:32:51.689Z,75996.97
2023-05-11T10:35:19.441Z,75974.69
2023-05-11T10:37:46.673Z,75980.75
2023-05-11T10:40:14.332Z,75956.44
2023-05-11T10:43:28.850Z,75964.56
2023-05-11T10:46:27.482Z,75952.38
2023-05-11T10:49:17.486Z,75946.31
2023-05-11T10:52:03.496Z,75919.97
2023-05-11T10:54:52.843Z,75895.66
2023-05-11T10:57:55.209Z,75899.69
2023-05-11T11:00:43.590Z,75907.81
2023-05-11T11:03:12.572Z,75915.91
2023-05-11T11:05:40.098Z,75903.75
2023-05-11T11:08:09.565Z,75899.69
2023-05-11T11:10:38.433Z,75885.50
2023-05-11T11:13:10.030Z,75887.53
2023-05-11T11:15:55.491Z,75863.22
2023-05-11T11:18:25.731Z,75885.50
2023-05-11T11:20:54.650Z,75871.31
2023-05-11T11:23:42.266Z,75911.84
2023-05-11T11:26:15.740Z,75883.47
2023-05-11T11:29:00.716Z,75883.47
2023-05-11T11:31:32.282Z,75859.16
2023-05-11T11:34:28.841Z,75847.00
2023-05-11T11:36:56.062Z,75851.06
2023-05-11T11:39:29.064Z,75855.09
2023-05-11T11:42:19.866Z,75834.84
2023-05-11T11:44:49.032Z,75830.78
2023-05-11T11:47:20.134Z,75826.72
2023-05-11T11:49:53.363Z,75838.91
2023-05-11T11:52:26.979Z,75859.16
2023-05-11T11:55:02.514Z,75871.31
2023-05-11T11:57:30.033Z,75863.22
2023-05-11T11:59:57.733Z,75863.22
2023-05-11T12:02:26.667Z,75867.28
2023-05-11T12:05:01.018Z,75842.94
2023-05-11T12:07:33.557Z,75840.91
2023-05-11T12:10:04.664Z,75838.91
2023-05-11T12:12:32.426Z,75847.00
2023-05-11T12:15:02.326Z,75838.91
2023-05-11T12:17:30.178Z,75826.72
2023-05-11T12:20:12.291Z,75822.69
2023-05-11T12:22:39.626Z,75802.41
2023-05-11T12:25:08.326Z,75798.38
2023-05-11T12:27:35.675Z,75806.47
2023-05-11T12:30:02.891Z,75798.38
2023-05-11T12:32:31.345Z,75810.53
2023-05-11T12:35:04.270Z,75802.41
2023-05-11T12:37:31.999Z,75782.16
2023-05-11T12:39:59.926Z,75778.09
2023-05-11T12:42:27.286Z,75765.94
2023-05-11T12:44:55.474Z,75739.59
2023-05-11T12:47:23.502Z,75727.44
2023-05-11T12:49:51.094Z,75741.63
2023-05-11T12:52:18.227Z,75725.41
2023-05-11T12:54:51.809Z,75713.25
2023-05-11T12:57:26.977Z,75705.13
2023-05-11T13:00:15.593Z,75690.94
2023-05-11T13:02:50.892Z,75688.94
2023-05-11T13:05:23.444Z,75680.81
2023-05-11T13:08:03.542Z,75652.44
2023-05-11T13:10:31.693Z,75672.72
2023-05-11T13:12:59.284Z,75676.75
2023-05-11T13:15:28.653Z,75668.66
2023-05-11T13:17:59.216Z,75668.66
2023-05-11T13:20:29.502Z,75680.81
2023-05-11T13:23:08.798Z,75664.59
2023-05-11T13:25:53.473Z,75654.47
2023-05-11T13:28:23.610Z,75660.56
2023-05-11T13:30:58.068Z,75672.72
2023-05-11T13:33:26.412Z,75672.72
2023-05-11T13:35:54.573Z,75664.59
2023-05-11T13:38:22.532Z,75656.50
2023-05-11T13:40:50.708Z,75644.34
2023-05-11T13:43:17.808Z,75640.28
2023-05-11T13:45:46.388Z,75640.28
2023-05-11T13:48:13.692Z,75636.22
2023-05-11T13:50:41.368Z,75640.28
2023-05-11T13:53:08.342Z,75634.22
2023-05-11T13:55:38.227Z,75644.34
2023-05-11T13:58:06.509Z,75652.44
2023-05-11T14:00:35.111Z,75652.44
2023-05-11T14:03:02.489Z,75652.44
2023-05-11T14:05:30.028Z,75636.22
2023-05-11T14:07:57.234Z,75634.22
2023-05-11T14:10:27.742Z,75605.84
2023-05-11T14:12:55.276Z,75595.69
2023-05-11T14:15:22.667Z,75603.81
2023-05-11T14:17:50.128Z,75591.66
2023-05-11T14:20:17.206Z,75595.69
2023-05-11T14:22:44.476Z,75611.91
2023-05-11T14:25:11.444Z,75599.75
2023-05-11T14:27:39.461Z,75603.81
2023-05-11T14:30:07.986Z,75595.69
2023-05-11T14:32:35.635Z,75599.75
2023-05-11T14:35:02.902Z,75611.91
2023-05-11T14:37:30.598Z,75597.72
2023-05-11T14:39:58.123Z,75581.53
2023-05-11T14:42:25.488Z,75583.53
2023-05-11T14:44:52.556Z,75599.75
2023-05-11T14:47:20.116Z,75579.50
2023-05-11T14:49:47.333Z,75538.97
2023-05-11T14:52:14.488Z,75534.91
2023-05-11T14:54:42.748Z,75433.59
2023-05-11T14:57:10.078Z,75149.91
2023-05-11T14:59:47.660Z,75040.47
2023-05-11T15:02:26.145Z,74801.41
2023-05-11T15:04:53.411Z,74598.81
2023-05-11T15:07:21.302Z,74440.78
2023-05-11T15:09:48.658Z,74367.84
2023-05-11T15:12:16.168Z,74380.00
2023-05-11T15:14:43.559Z,74396.22
2023-05-11T15:17:11.250Z,74420.53
2023-05-11T15:19:38.277Z,74428.63
2023-05-11T15:22:06.194Z,74477.25
2023-05-11T15:24:34.137Z,74438.75
2023-05-11T15:27:01.838Z,74461.03
2023-05-11T15:29:28.748Z,74420.53
2023-05-11T15:31:56.232Z,74469.16
2023-05-11T15:34:23.331Z,74485.34
2023-05-11T15:36:50.986Z,74580.56
2023-05-11T15:39:18.607Z,74485.34
2023-05-11T15:41:46.623Z,74550.19
2023-05-11T15:44:13.849Z,74615.00
2023-05-11T15:46:42.056Z,74789.25
2023-05-11T15:49:09.171Z,74886.50
2023-05-11T15:51:37.065Z,74829.78
2023-05-11T15:54:04.103Z,74813.56
2023-05-11T15:56:32.131Z,74987.81
2023-05-11T15:58:59.254Z,75109.38
2023-05-11T16:01:26.843Z,75162.06
2023-05-11T16:03:53.749Z,75180.28
2023-05-11T16:06:22.034Z,75200.56
2023-05-11T16:08:48.963Z,75226.91
2023-05-11T16:11:18.811Z,75226.91
2023-05-11T16:13:46.625Z,75299.84
2023-05-11T16:16:14.486Z,75340.38
2023-05-11T16:18:41.619Z,75324.16
2023-05-11T16:21:09.016Z,75328.22
2023-05-11T16:23:35.982Z,75303.91
2023-05-11T16:26:03.612Z,75182.31
2023-05-11T16:28:31.684Z,75125.59
2023-05-11T16:30:59.515Z,75182.31
2023-05-11T16:33:26.906Z,75198.53
2023-05-11T16:35:54.443Z,75212.72
2023-05-11T16:38:22.577Z,75162.06
2023-05-11T16:40:50.699Z,75145.84
2023-05-11T16:43:17.978Z,75178.28
2023-05-11T16:45:45.548Z,75263.38
2023-05-11T16:48:12.645Z,75334.28
2023-05-11T16:50:39.905Z,75334.28
2023-05-11T16:53:07.041Z,75360.63
2023-05-11T16:55:34.510Z,75336.31
2023-05-11T16:58:02.315Z,75376.84
2023-05-11T17:00:30.088Z,75380.91
2023-05-11T17:02:57.235Z,75435.63
2023-05-11T17:05:24.722Z,75492.34
2023-05-11T17:07:51.788Z,75557.19
2023-05-11T17:10:19.651Z,75618.00
2023-05-11T17:12:47.070Z,75684.88
2023-05-11T17:15:14.444Z,75753.78
2023-05-11T17:17:41.484Z,75786.19
2023-05-11T17:20:10.255Z,75810.53
2023-05-11T17:22:38.425Z,75842.94
2023-05-11T17:25:07.377Z,75871.31
2023-05-11T17:27:35.811Z,75879.44
2023-05-11T17:30:04.785Z,75899.69
2023-05-11T17:32:32.377Z,75899.69
2023-05-11T17:35:01.320Z,75911.84
2023-05-11T17:37:32.264Z,75919.97
2023-05-11T17:40:01.187Z,75932.13
2023-05-11T17:42:28.648Z,75948.34
2023-05-11T17:44:56.406Z,75968.59
2023-05-11T17:47:23.422Z,75980.75
2023-05-11T17:49:50.885Z,75984.81
2023-05-11T17:52:17.770Z,76001.03
2023-05-11T17:54:45.307Z,76009.13
2023-05-11T17:57:12.307Z,76033.47
2023-05-11T17:59:39.761Z,76039.53
2023-05-11T18:02:07.557Z,76049.69
2023-05-11T18:04:35.191Z,76053.72
2023-05-11T18:07:02.126Z,76069.94
2023-05-11T18:09:29.598Z,76078.06
2023-05-11T18:11:56.956Z,76092.25
2023-05-11T18:14:24.195Z,76098.31
2023-05-11T18:16:53.146Z,76110.47
2023-05-11T18:19:20.493Z,76122.63
2023-05-11T18:21:48.536Z,76130.75
2023-05-11T18:24:18.205Z,76138.84
2023-05-11T18:26:45.677Z,76155.06
2023-05-11T18:29:12.904Z,76159.13
2023-05-11T18:31:40.213Z,76175.34
2023-05-11T18:34:08.038Z,76187.50
2023-05-11T18:36:35.622Z,76199.66
2023-05-11T18:39:04.892Z,76209.78
2023-05-11T18:41:32.057Z,76221.94
2023-05-11T18:44:00.241Z,76228.03
2023-05-11T18:46:27.757Z,76244.25
2023-05-11T18:48:55.324Z,76248.31
2023-05-11T18:51:22.899Z,76258.44
2023-05-11T18:53:50.543Z,76264.53
2023-05-11T18:56:17.884Z,76288.84
2023-05-11T18:58:46.565Z,76296.94
2023-05-11T19:01:14.299Z,76301.00
2023-05-11T19:03:41.667Z,76319.25
2023-05-11T19:06:09.131Z,76321.28
2023-05-11T19:08:36.904Z,76333.44
2023-05-11T19:11:06.820Z,76341.53
2023-05-11T19:13:34.770Z,76347.63
2023-05-11T19:16:03.841Z,76365.88
2023-05-11T19:18:32.345Z,76369.91
2023-05-11T19:20:59.512Z,76378.03
2023-05-11T19:23:26.761Z,76386.13
2023-05-11T19:25:53.787Z,76394.25
2023-05-11T19:28:21.839Z,76406.41
2023-05-11T19:30:49.358Z,76414.50
2023-05-11T19:33:16.776Z,76422.63
2023-05-11T19:35:44.522Z,76430.72
2023-05-11T19:38:11.741Z,76434.78
2023-05-11T19:40:45.545Z,76438.84
2023-05-11T19:43:14.755Z,76446.94
2023-05-11T19:45:44.280Z,76446.94
2023-05-11T19:48:12.712Z,76453.03
2023-05-11T19:50:43.102Z,76455.06
2023-05-11T19:53:10.805Z,76463.16
2023-05-11T19:55:40.211Z,76463.16
2023-05-11T19:58:07.859Z,76469.25
2023-05-11T20:00:35.215Z,76479.38
2023-05-11T20:03:03.441Z,76487.50
2023-05-11T20:05:30.669Z,76491.53
2023-05-11T20:07:58.308Z,76499.66
2023-05-11T20:10:25.613Z,76507.75
2023-05-11T20:12:53.138Z,76507.75
2023-05-11T20:15:21.085Z,76511.81
2023-05-11T20:17:50.307Z,76523.97
2023-05-11T20:20:17.771Z,76526.00
2023-05-11T20:22:46.214Z,76536.13
2023-05-11T20:25:18.506Z,76544.25
2023-05-11T20:27:46.986Z,76552.34
2023-05-11T20:30:14.445Z,76556.41
2023-05-11T20:34:06.897Z,76560.47
2023-05-11T20:35:29.703Z,76568.56
2023-05-11T20:37:57.103Z,76576.69
2023-05-11T20:40:25.535Z,76580.72
2023-05-11T20:42:52.910Z,76588.84
2023-05-11T20:45:20.085Z,76588.84
2023-05-11T20:47:47.465Z,76592.91
2023-05-11T20:50:15.235Z,76607.09
2023-05-11T20:52:42.510Z,76605.06
2023-05-11T20:55:09.511Z,76613.16
2023-05-11T20:57:36.823Z,76621.28
2023-05-11T21:00:07.553Z,76625.31
2023-05-11T21:02:35.437Z,76631.41
2023-05-11T21:05:04.430Z,76641.53
2023-05-11T21:07:31.712Z,76647.63
2023-05-11T21:09:58.758Z,76651.69
2023-05-11T21:12:26.397Z,76661.81
2023-05-11T21:14:54.906Z,76665.88
2023-05-11T21:17:23.480Z,76676.00
2023-05-11T21:19:50.703Z,76686.13
2023-05-11T21:22:17.867Z,76686.13
2023-05-11T21:24:44.938Z,76690.19
2023-05-11T21:27:12.255Z,76698.31
2023-05-11T21:29:39.209Z,76702.34
2023-05-11T21:32:06.938Z,76706.41
2023-05-11T21:34:34.293Z,76706.41
2023-05-11T21:37:03.120Z,76714.53
2023-05-11T21:39:30.407Z,76718.56
2023-05-11T21:41:57.836Z,76720.59
2023-05-11T21:44:25.371Z,76728.72
2023-05-11T21:46:52.664Z,76726.69
2023-05-11T21:49:20.036Z,76742.91
2023-05-11T21:51:47.397Z,76746.97
2023-05-11T21:54:14.594Z,76751.00
2023-05-11T21:56:42.209Z,76755.06
2023-05-11T21:59:09.400Z,76759.13
2023-05-11T22:01:38.564Z,76765.19
2023-05-11T22:04:06.680Z,76771.28
2023-05-11T22:06:33.928Z,76779.38
2023-05-11T22:09:01.262Z,76783.44
2023-05-11T22:11:28.688Z,76791.56
2023-05-11T22:13:55.601Z,76791.56
2023-05-11T22:16:23.104Z,76803.72
2023-05-11T22:18:50.298Z,76811.81
2023-05-11T22:21:17.959Z,76819.94
2023-05-11T22:23:45.103Z,76828.03
2023-05-11T22:26:12.566Z,76836.16
2023-05-11T22:28:39.380Z,76844.25
2023-05-11T22:31:07.918Z,76848.31
2023-05-11T22:33:35.129Z,76848.31
2023-05-11T22:36:02.744Z,76860.47
2023-05-11T22:38:29.605Z,76860.47
2023-05-11T22:40:56.949Z,76880.75
2023-05-11T22:43:24.091Z,76876.69
2023-05-11T22:45:51.448Z,76880.75
2023-05-11T22:48:18.384Z,76890.88
2023-05-11T22:50:47.817Z,76892.91
2023-05-11T22:53:14.901Z,76901.03
2023-05-11T22:55:42.549Z,76905.09
2023-05-11T22:58:09.545Z,76905.09
2023-05-11T23:00:37.426Z,76907.09
2023-05-11T23:03:04.787Z,76909.13
2023-05-11T23:05:32.148Z,76909.13
2023-05-11T23:08:00.009Z,76913.19
2023-05-11T23:10:28.691Z,76923.31
2023-05-11T23:12:56.358Z,76921.31
2023-05-11T23:15:23.785Z,76913.19
2023-05-11T23:17:50.947Z,76927.38
2023-05-11T23:20:18.728Z,76929.41
2023-05-11T23:22:45.905Z,76933.47
2023-05-11T23:25:15.470Z,76937.53
2023-05-11T23:27:42.462Z,76941.56
2023-05-11T23:30:10.250Z,76937.53
2023-05-11T23:32:37.202Z,76939.53
2023-05-11T23:35:04.800Z,76937.53
2023-05-11T23:37:31.961Z,76941.56
2023-05-11T23:39:59.354Z,76945.63
2023-05-11T23:42:26.891Z,76949.69
2023-05-11T23:44:54.509Z,76949.69
2023-05-11T23:47:21.788Z,76953.75
2023-05-11T23:49:49.794Z,76953.75
2023-05-11T23:52:16.705Z,76957.78
2023-05-11T23:54:44.335Z,76957.78
2023-05-11T23:57:11.389Z,76957.78
2023-05-11T23:59:38.666Z,76957.78
